Flight Track Log - Related Links

Times and Time Zones

All times are in EDT time to prevent confusion due to time zone crossing. See the BCY5280 flight status page for this flight to view local times or setup timezone preferences in your user account.


Time Position Orientation Groundspeed Altitude Reporting Facility
EDT Latitude Longitude Course Direction KTS MPH feet Rate Location/Type
Mon 08:01:07 AM 43.8660 10.9670 327° Northwest 212 244 8,300  Level FlightAware ADS-B
Mon 08:01:32 AM 43.8850 10.9460 321° Northwest 222 255 9,000 1,320 Climbing FlightAware ADS-B
Mon 08:01:57 AM 43.9050 10.9190 316° Northwest 252 290 9,400 1,543 Climbing FlightAware ADS-B
Mon 08:02:42 AM 43.9440 10.8660 316° Northwest 273 314 10,800 1,533 Climbing FlightAware ADS-B
Mon 08:03:27 AM 43.9870 10.8070 315° West 297 342 11,700 1,482 Climbing FlightAware ADS-B
Mon 08:04:07 AM 44.0330 10.7670 328° Northwest 299 344 12,900 1,725 Climbing FlightAware ADS-B
Mon 08:04:47 AM 44.0870 10.7350 337° Northwest 315 362 14,000 1,650 Climbing FlightAware ADS-B
Mon 08:05:27 AM 44.1420 10.7020 337° Northwest 318 366 15,100 1,624 Climbing FlightAware ADS-B
Mon 08:06:12 AM 44.2020 10.6660 337° Northwest 316 364 16,300 1,467 Climbing FlightAware ADS-B
Mon 08:06:57 AM 44.2650 10.6270 336° Northwest 333 383 17,300 1,412 Climbing FlightAware ADS-B
Mon 08:07:37 AM 44.3210 10.5920 336° Northwest 335 386 18,300 1,350 Climbing FlightAware ADS-B
Mon 08:08:17 AM 44.3790 10.5580 337° Northwest 333 383 19,100 1,200 Climbing FlightAware ADS-B
Mon 08:09:02 AM 44.4440 10.5170 336° Northwest 348 400 20,000 1,200 Climbing FlightAware ADS-B
Mon 08:09:42 AM 44.5030 10.4810 336° Northwest 350 403 20,800 1,200 Climbing FlightAware ADS-B
Mon 08:10:22 AM 44.5630 10.4440 336° Northwest 353 406 21,600 1,129 Climbing FlightAware ADS-B
Mon 08:11:07 AM 44.6310 10.4020 336° Northwest 356 410 22,400 988 Climbing FlightAware ADS-B
Mon 08:11:47 AM 44.6910 10.3650 336° Northwest 350 403 23,000 918 Climbing FlightAware ADS-B
Mon 08:12:32 AM 44.7600 10.3230 337° Northwest 354 407 23,700 918 Climbing FlightAware ADS-B
Mon 08:13:12 AM 44.8160 10.2860 335° Northwest 354 407 24,300 1,040 Climbing FlightAware ADS-B
Mon 08:13:47 AM 44.8660 10.2400 327° Northwest 353 406 25,000 1,129 Climbing FlightAware ADS-B
Mon 08:14:37 AM 44.9380 10.1750 327° Northwest 349 402 25,900 1,011 Climbing FlightAware ADS-B
Mon 08:15:22 AM 45.0010 10.1180 327° Northwest 349 402 26,600 918 Climbing FlightAware ADS-B
Mon 08:16:02 AM 45.0560 10.0680 327° Northwest 349 402 27,200 900 Climbing FlightAware ADS-B
Mon 08:16:42 AM 45.1110 10.0180 327° Northwest 345 397 27,800 918 Climbing FlightAware ADS-B
Mon 08:17:27 AM 45.1720 9.9620 327° Northwest 344 396 28,500 847 Climbing FlightAware ADS-B
Mon 08:18:07 AM 45.2270 9.9110 327° Northwest 350 403 29,000 825 Climbing FlightAware ADS-B
Mon 08:18:47 AM 45.2820 9.8600 327° Northwest 348 400 29,600 847 Climbing FlightAware ADS-B
Mon 08:19:32 AM 45.3420 9.8040 327° Northwest 348 400 30,200 776 Climbing FlightAware ADS-B
Mon 08:20:12 AM 45.3960 9.7540 327° Northwest 346 398 30,700 706 Climbing FlightAware ADS-B
Mon 08:20:57 AM 45.4560 9.6980 327° Northwest 344 396 31,200 706 Climbing FlightAware ADS-B
Mon 08:21:37 AM 45.5080 9.6490 327° Northwest 344 396 31,700 600 Climbing FlightAware ADS-B
Mon 08:22:17 AM 45.5620 9.5980 327° Northwest 348 400 32,000 212 Climbing FlightAware ADS-B
Mon 08:23:02 AM 45.6220 9.5420 327° Northwest 352 405 32,000  Level FlightAware ADS-B
Mon 08:23:42 AM 45.6810 9.4870 327° Northwest 362 417 32,000  Level FlightAware ADS-B
Mon 08:24:27 AM 45.7430 9.4280 326° Northwest 355 409 32,000  Level FlightAware ADS-B
Mon 08:25:07 AM 45.7980 9.3760 327° Northwest 363 418 32,000  Level FlightAware ADS-B
Mon 08:25:47 AM 45.8550 9.3220 327° Northwest 363 418 32,000  Level FlightAware ADS-B
Mon 08:26:32 AM 45.9200 9.2650 329° Northwest 367 422 32,000  Level FlightAware ADS-B
Mon 08:27:12 AM 45.9860 9.2370 344° North 361 415 32,000  Level FlightAware ADS-B
Mon 08:27:52 AM 46.0520 9.2200 350° North 357 411 32,000  Level FlightAware ADS-B
Mon 08:28:32 AM 46.1130 9.2060 351° North 359 413 32,000  Level FlightAware ADS-B
Mon 08:29:17 AM 46.1940 9.1840 349° North 362 417 32,000  Level FlightAware ADS-B
Mon 08:30:02 AM 46.2690 9.1630 349° North 358 412 32,000  Level FlightAware ADS-B
Mon 08:30:42 AM 46.3330 9.1450 349° North 364 419 32,000  Level FlightAware ADS-B
Mon 08:31:27 AM 46.4090 9.1120 343° North 364 419 32,000  Level FlightAware ADS-B
Mon 08:32:07 AM 46.4720 9.0610 331° Northwest 368 423 32,000  Level FlightAware ADS-B
Mon 08:32:47 AM 46.5320 9.0130 331° Northwest 368 423 32,000  Level FlightAware ADS-B
Mon 08:33:27 AM 46.5900 8.9630 329° Northwest 366 421 32,000  Level FlightAware ADS-B
Mon 08:34:07 AM 46.6390 8.9020 319° Northwest 367 422 32,000  Level FlightAware ADS-B
Mon 08:34:52 AM 46.6890 8.8250 313° West 361 415 32,000  Level FlightAware ADS-B
Mon 08:35:37 AM 46.7400 8.7460 313° West 363 418 32,000  Level FlightAware ADS-B
Mon 08:36:17 AM 46.7900 8.6710 314° West 372 428 32,000  Level FlightAware ADS-B
Mon 08:37:02 AM 46.8450 8.5890 314° West 374 430 32,000  Level FlightAware ADS-B
Mon 08:37:42 AM 46.8890 8.5240 315° West 371 427 32,000  Level FlightAware ADS-B
Mon 08:38:27 AM 46.9520 8.4310 315° West 370 426 32,000  Level FlightAware ADS-B
Mon 08:39:07 AM 47.0000 8.3580 314° West 371 427 32,000  Level FlightAware ADS-B
Mon 08:39:47 AM 47.0460 8.2900 315° West 370 426 32,000  Level FlightAware ADS-B
Mon 08:40:32 AM 47.1000 8.2080 314° West 366 421 32,000  Level FlightAware ADS-B
Mon 08:41:12 AM 47.1450 8.1300 310° West 365 420 32,000  Level FlightAware ADS-B
Mon 08:41:57 AM 47.1790 8.0340 298° West 364 419 32,000  Level FlightAware ADS-B
Mon 08:42:32 AM 47.2020 7.9530 293° West 361 415 32,000  Level FlightAware ADS-B
Mon 08:43:17 AM 47.2310 7.8520 293° West 359 413 32,000  Level FlightAware ADS-B
Mon 08:44:02 AM 47.2610 7.7490 293° West 366 421 32,000  Level FlightAware ADS-B
Mon 08:44:42 AM 47.2860 7.6580 292° West 371 427 32,000  Level FlightAware ADS-B
Mon 08:45:22 AM 47.3120 7.5620 292° West 368 423 32,000  Level FlightAware ADS-B
Mon 08:46:07 AM 47.3410 7.4560 292° West 364 419 32,000  Level FlightAware ADS-B
Mon 08:46:47 AM 47.3650 7.3640 291° West 364 419 32,000  Level FlightAware ADS-B
Mon 08:47:32 AM 47.3930 7.2600 292° West 368 423 32,000  Level FlightAware ADS-B
Mon 08:48:12 AM 47.4180 7.1680 292° West 369 425 32,000  Level FlightAware ADS-B
Mon 08:48:57 AM 47.4450 7.0650 291° West 366 421 32,000  Level FlightAware ADS-B
Mon 08:49:37 AM 47.4720 6.9670 292° West 363 418 32,000  Level FlightAware ADS-B
Mon 08:50:17 AM 47.4960 6.8780 292° West 362 417 32,000  Level FlightAware ADS-B
Mon 08:50:57 AM 47.5200 6.7890 292° West 363 418 32,000  Level FlightAware ADS-B
Mon 08:51:42 AM 47.5460 6.6890 291° West 367 422 32,000  Level FlightAware ADS-B
Mon 08:52:22 AM 47.5700 6.5960 291° West 369 425 32,000  Level FlightAware ADS-B
Mon 08:53:02 AM 47.5950 6.4990 291° West 370 426 32,000  Level FlightAware ADS-B
Mon 08:53:47 AM 47.6220 6.3950 291° West 369 425 32,000  Level FlightAware ADS-B
Mon 08:54:27 AM 47.6480 6.2940 291° West 366 421 32,000  Level FlightAware ADS-B
Mon 08:55:12 AM 47.6750 6.1890 291° West 364 419 32,000  Level FlightAware ADS-B
Mon 08:55:52 AM 47.6990 6.0960 291° West 365 420 32,000  Level FlightAware ADS-B
Mon 08:56:32 AM 47.7230 6.0000 290° West 366 421 32,000  Level FlightAware ADS-B
Mon 08:57:17 AM 47.7500 5.8940 291° West 368 423 32,000  Level FlightAware ADS-B
Mon 08:57:57 AM 47.7750 5.7980 291° West 369 425 32,000  Level FlightAware ADS-B
Mon 08:58:42 AM 47.8100 5.7000 298° West 367 422 32,000  Level FlightAware ADS-B
Mon 08:59:22 AM 47.8520 5.6190 308° West 367 422 32,000  Level FlightAware ADS-B
Mon 09:00:07 AM 47.8960 5.5410 310° West 369 425 32,000  Level FlightAware ADS-B
Mon 09:00:27 AM 47.9249 5.4880 309° West 370 426 32,000  Level FlightAware ADS-B
Mon 09:01:01 AM 47.9610 5.4197 308° West 371 427 32,000  Level FlightAware ADS-B
Mon 09:01:35 AM 47.9975 5.3498 308° West 370 426 32,000  Level FlightAware ADS-B
Mon 09:02:11 AM 48.0343 5.2793 308° West 368 423 32,000  Level FlightAware ADS-B
Mon 09:03:03 AM 48.0889 5.1735 308° West 369 425 32,000  Level FlightAware ADS-B
Mon 09:03:36 AM 48.1230 5.1068 307° West 371 427 32,000  Level FlightAware ADS-B
Mon 09:04:42 AM 48.1830 4.9890 307° West 373 429 32,000  Level FlightAware ADS-B
Mon 09:05:17 AM 48.2210 4.9150 308° West 374 430 32,000  Level FlightAware ADS-B
Mon 09:06:07 AM 48.2750 4.8090 307° West 373 429 32,000  Level FlightAware ADS-B
Mon 09:06:52 AM 48.3200 4.7200 307° West 374 430 32,000  Level FlightAware ADS-B
Mon 09:07:32 AM 48.3640 4.6340 308° West 374 430 32,000  Level FlightAware ADS-B
Mon 09:08:12 AM 48.4030 4.5540 306° West 373 429 32,000  Level FlightAware ADS-B
Mon 09:08:57 AM 48.4520 4.4570 307° West 366 421 32,000  Level FlightAware ADS-B
Mon 09:09:37 AM 48.4920 4.3760 307° West 364 419 32,000  Level FlightAware ADS-B
Mon 09:10:22 AM 48.5380 4.2830 307° West 364 419 32,000  Level FlightAware ADS-B
Mon 09:10:48 AM 48.5721 4.2145 307° West 370 426 32,000  Level FlightAware ADS-B
Mon 09:11:25 AM 48.6092 4.1387 307° West 371 427 32,000  Level FlightAware ADS-B
Mon 09:11:49 AM 48.6337 4.0887 307° West 371 427 32,000  Level FlightAware ADS-B
Mon 09:12:10 AM 48.6583 4.0495 314° West 372 428 32,000  Level FlightAware ADS-B
Mon 09:12:40 AM 48.6994 3.9990 321° Northwest 375 432 32,000  Level FlightAware ADS-B
Mon 09:13:11 AM 48.7425 3.9523 324° Northwest 377 434 32,000  Level FlightAware ADS-B
Mon 09:13:52 AM 48.7940 3.8970 325° Northwest 377 434 32,000  Level FlightAware ADS-B
Mon 09:14:32 AM 48.8510 3.8350 324° Northwest 376 433 32,000  Level FlightAware ADS-B
Mon 09:15:17 AM 48.9150 3.7630 324° Northwest 370 426 32,000  Level FlightAware ADS-B
Mon 09:15:44 AM 48.9575 3.7142 323° Northwest 376 433 32,000  Level FlightAware ADS-B
Mon 09:16:14 AM 49.0004 3.6651 323° Northwest 373 429 32,000  Level FlightAware ADS-B
Mon 09:16:46 AM 49.0438 3.6155 323° Northwest 370 426 32,000  Level FlightAware ADS-B
Mon 09:17:20 AM 49.0903 3.5618 323° Northwest 369 425 32,000  Level FlightAware ADS-B
Mon 09:17:53 AM 49.1353 3.5097 323° Northwest 369 425 32,000  Level FlightAware ADS-B
Mon 09:18:24 AM 49.1776 3.4608 323° Northwest 371 427 32,000  Level FlightAware ADS-B
Mon 09:18:54 AM 49.2184 3.4130 323° Northwest 372 428 32,000  Level FlightAware ADS-B
Mon 09:19:30 AM 49.2668 3.3566 323° Northwest 372 428 32,000  Level FlightAware ADS-B
Mon 09:20:00 AM 49.3079 3.3085 323° Northwest 371 427 32,000  Level FlightAware ADS-B
Mon 09:20:33 AM 49.3527 3.2564 323° Northwest 367 422 32,000  Level FlightAware ADS-B
Mon 09:21:37 AM 49.4270 3.1690 323° Northwest 370 426 32,000  Level FlightAware ADS-B
Mon 09:21:42 AM 49.4464 3.1459 322° Northwest 367 422 32,000  Level FlightAware ADS-B
Mon 09:22:15 AM 49.4910 3.0932 322° Northwest 372 428 32,000 -1,800 Level FlightAware ADS-B
Mon 09:22:32 AM 49.4990 3.0695 322° Northwest 1 1 30,500  Descending FlightAware UK
Mon 09:22:46 AM 49.5333 3.0431 322° Northwest 369 425 32,000  Climbing FlightAware ADS-B
Mon 09:23:14 AM 49.5559 3.0067 322° Northwest 1 1 30,500  Descending FlightAware UK
Mon 09:23:32 AM 49.5948 2.9701 322° Northwest 363 418 32,000 1,800 Climbing FlightAware ADS-B
Mon 09:24:04 AM 49.6377 2.9195 323° Northwest 361 415 32,000 -1,667 Level FlightAware ADS-B
Mon 09:24:26 AM 49.6515 2.8920 323° Northwest 1 1 30,500  Descending FlightAware UK
Mon 09:24:38 AM 49.6821 2.8662 323° Northwest 361 415 32,000 2,093 Climbing FlightAware ADS-B
Mon 09:25:09 AM 49.7234 2.8168 322° Northwest 363 418 32,000 -1,667 Level FlightAware ADS-B
Mon 09:25:32 AM 49.7387 2.7890 322° Northwest 1 1 30,500  Descending FlightAware UK
Mon 09:25:40 AM 49.7648 2.7666 322° Northwest 365 420 32,000 2,195 Climbing FlightAware ADS-B
Mon 09:26:13 AM 49.8078 2.7147 322° Northwest 365 420 32,000 -1,731 Level FlightAware ADS-B
Mon 09:26:32 AM 49.8193 2.6956 322° Northwest 400 460 30,500  Descending FlightAware UK
Mon 09:26:52 AM 49.8598 2.6519 322° Northwest 365 420 32,000  Climbing FlightAware ADS-B
Mon 09:27:08 AM 49.8672 2.6378 322° Northwest 400 460 30,500  Descending FlightAware UK
Mon 09:27:22 AM 49.8920 2.6130 322° Northwest 364 419 32,000 4,000 Climbing FlightAware ADS-B
Mon 09:27:29 AM 49.9092 2.5924 322° Northwest 364 419 31,900 -4,636 Descending FlightAware ADS-B
Mon 09:27:44 AM 49.9146 2.5804 322° Northwest 400 460 30,300 -486 Descending FlightAware UK
Mon 09:28:06 AM 49.9585 2.5324 322° Northwest 363 418 31,600 -571 Climbing FlightAware ADS-B
Mon 09:28:26 AM 49.9706 2.5139 322° Northwest 402 463 29,900 -419 Descending FlightAware UK
Mon 09:28:49 AM 50.0152 2.4632 322° Northwest 367 422 31,300 -429 Climbing FlightAware ADS-B
Mon 09:29:08 AM 50.0264 2.4466 322° Northwest 402 463 29,600 -500 Descending FlightAware UK
Mon 09:29:25 AM 50.0618 2.4042 322° Northwest 366 421 31,000 792 Climbing FlightAware ADS-B
Mon 09:30:01 AM 50.1095 2.3433 321° Northwest 369 425 30,300 -3,055 Descending FlightAware ADS-B
Mon 09:30:20 AM 50.1213 2.3262 321° Northwest 404 465 28,200 -1,500 Descending FlightAware UK
Mon 09:30:33 AM 50.1515 2.2898 321° Northwest 371 427 29,500 1,455 Climbing FlightAware ADS-B
Mon 09:30:53 AM 50.1790 2.2546 321° Northwest 369 425 29,000 -4,286 Descending FlightAware ADS-B
Mon 09:31:08 AM 50.1855 2.2457 321° Northwest 408 470 27,000 -1,500 Descending FlightAware UK
Mon 09:31:29 AM 50.2257 2.1942 321° Northwest 364 419 28,100 -1,333 Climbing FlightAware ADS-B
Mon 09:31:44 AM 50.2326 2.1850 321° Northwest 406 467 26,200 -1,500 Descending FlightAware UK
Mon 09:32:01 AM 50.2664 2.1419 321° Northwest 364 419 27,300 -1,571 Climbing FlightAware ADS-B
Mon 09:32:26 AM 50.2875 2.1156 321° Northwest 408 470 25,100 -1,535 Descending FlightAware UK
Mon 09:32:44 AM 50.3230 2.0680 321° Northwest 372 428 26,200 -1,500 Climbing FlightAware ADS-B
Mon 09:33:02 AM 50.3351 2.0545 321° Northwest 410 472 24,200 -1,688 Descending FlightAware UK
Mon 09:33:16 AM 50.3655 2.0123 321° Northwest 369 425 25,300 -1,875 Climbing FlightAware ADS-B
Mon 09:33:50 AM 50.3981 1.9721 321° Northwest 398 458 22,700 -1,463 Descending FlightAware UK
Mon 09:33:57 AM 50.4080 1.9550 321° Northwest 360 414 24,300 2,182 Climbing FlightAware ADS-B
Mon 09:34:12 AM 50.4372 1.9164 320° Northwest 361 415 23,500 -2,250 Descending FlightAware ADS-B
Mon 09:34:45 AM 50.4787 1.8604 319° Northwest 358 412 22,500 -3,600 Descending FlightAware ADS-B
Mon 09:35:02 AM 50.4889 1.8506 319° Northwest 386 444 20,500 -1,459 Descending FlightAware UK
Mon 09:35:22 AM 50.5180 1.8070 319° Northwest 357 411 21,600 632 Climbing FlightAware ADS-B
Mon 09:35:40 AM 50.5471 1.7680 320° Northwest 357 411 20,900 -4,350 Descending FlightAware ADS-B
Mon 09:36:02 AM 50.5644 1.7497 320° Northwest 382 440 18,700 -1,784 Descending FlightAware UK
Mon 09:36:17 AM 50.5917 1.7073 320° Northwest 341 392 19,800 -1,800 Climbing FlightAware ADS-B
Mon 09:36:32 AM 50.6000 1.7020 320° Northwest 372 428 17,800 -1,600 Descending FlightAware UK
Mon 09:36:47 AM 50.6210 1.6670 320° Northwest 327 376 19,000 3,158 Climbing FlightAware ADS-B
Mon 09:36:51 AM 50.6313 1.6534 320° Northwest 332 382 18,800 -1,886 Descending FlightAware ADS-B
Mon 09:37:22 AM 50.6673 1.6046 319° Northwest 328 377 17,900 -3,830 Descending FlightAware ADS-B
Mon 09:37:38 AM 50.6770 1.5990 319° Northwest 360 414 15,800 -4,588 Descending FlightAware UK
Mon 09:37:56 AM 50.6970 1.5721 320° Northwest 356 410 15,300 1,862 Descending FlightAware UK
Mon 09:38:07 AM 50.7110 1.5450 320° Northwest 318 366 16,700 2,455 Climbing FlightAware ADS-B
Mon 09:38:18 AM 50.7304 1.5185 319° Northwest 319 367 16,200 -1,902 Descending FlightAware ADS-B
Mon 09:38:48 AM 50.7637 1.4723 319° Northwest 318 366 15,400 -3,097 Descending FlightAware ADS-B
Mon 09:39:20 AM 50.7917 1.4431 319° Northwest 348 400 13,000 -1,227 Descending FlightAware UK
Mon 09:39:32 AM 50.8010 1.4200 319° Northwest 307 353 14,500 -1,600 Climbing FlightAware ADS-B
Mon 09:39:50 AM 50.8243 1.3987 319° Northwest 346 398 12,200 -4,667 Descending FlightAware UK
Mon 09:40:08 AM 50.8433 1.3725 319° Northwest 338 389 11,700 2,000 Descending FlightAware UK
Mon 09:40:17 AM 50.8560 1.3450 319° Northwest 298 343 13,100 -1,500 Climbing FlightAware ADS-B
Mon 09:40:44 AM 50.8810 1.3211 319° Northwest 320 368 10,800 -1,543 Descending FlightAware UK
Mon 09:40:52 AM 50.8900 1.2970 319° Northwest 287 330 12,200 453 Climbing FlightAware ADS-B
Mon 09:41:37 AM 50.9300 1.2420 319° Northwest 268 308 11,200 -2,707 Descending FlightAware ADS-B
Mon 09:42:14 AM 50.9588 1.1926 319° Northwest 290 334 8,500 -1,350 Descending FlightAware UK
Mon 09:42:17 AM 50.9580 1.1850 319° Northwest 259 298 10,300 -1,333 Climbing FlightAware ADS-B
Mon 09:42:32 AM 50.9707 1.1639 319° Northwest 288 331 8,100 -1,440 Descending FlightAware UK
Mon 09:42:42 AM 50.9730 1.1480 319° Northwest 250 288 9,700 2,000 Climbing FlightAware ADS-B
Mon 09:43:02 AM 50.9870 1.1120 302° West 249 287 9,100 -4,541 Descending FlightAware ADS-B
Mon 09:43:19 AM 50.9993 1.0884 302° West 284 327 6,900 -1,400 Descending FlightAware UK
Mon 09:43:32 AM 51.0070 1.0580 302° West 249 287 8,400 1,895 Climbing FlightAware ADS-B
Mon 09:43:57 AM 51.0210 1.0230 302° West 246 283 8,100 -2,780 Descending FlightAware ADS-B
Mon 09:44:13 AM 51.0322 1.0043 302° West 280 322 6,500 -200 Descending FlightAware UK
Mon 09:44:27 AM 51.0380 0.9770 302° West 246 283 8,000 3,103 Climbing FlightAware ADS-B
Mon 09:44:42 AM 51.0480 0.9530 304° West 245 282 8,000 -600 Level FlightAware ADS-B
Mon 09:45:07 AM 51.0640 0.9120 302° West 245 282 7,600 -900 Descending FlightAware ADS-B
Mon 09:45:22 AM 51.0730 0.8900 303° West 245 282 7,400 -900 Descending FlightAware ADS-B
Mon 09:45:47 AM 51.0890 0.8490 302° West 247 284 7,000 -873 Descending FlightAware ADS-B
Mon 09:46:17 AM 51.1060 0.8060 302° West 244 281 6,600 -2,760 Descending FlightAware ADS-B
Mon 09:46:37 AM 51.1209 0.7843 302° West 262 302 4,700 -800 Descending FlightAware UK
Mon 09:46:47 AM 51.1240 0.7610 302° West 240 276 6,200 -400 Climbing FlightAware ADS-B
Mon 09:47:07 AM 51.1444 0.7455 302° West 262 302 4,500 -240 Descending FlightAware UK
Mon 09:47:12 AM 51.1450 0.7290 302° West 243 280 6,100 -500 Climbing FlightAware ADS-B
Mon 09:47:31 AM 51.1688 0.7239 302° West 264 304 4,300 -600 Descending FlightAware UK
Mon 09:47:42 AM 51.1730 0.7020 302° West 242 278 5,800 -800 Climbing FlightAware ADS-B
Mon 09:48:01 AM 51.1978 0.6957 302° West 256 295 3,900 -1,000 Descending FlightAware UK
Mon 09:48:12 AM 51.2020 0.6750 302° West 238 274 5,300 -1,000 Climbing FlightAware ADS-B
Mon 09:48:31 AM 51.2269 0.6695 302° West 246 283 3,400 -960 Descending FlightAware UK
Mon 09:48:37 AM 51.2260 0.6520 302° West 227 261 4,900 -1,000 Climbing FlightAware ADS-B
Mon 09:48:55 AM 51.2491 0.6486 302° West 240 276 3,000 -1,000 Descending FlightAware UK
Mon 09:49:07 AM 51.2550 0.6260 302° West 226 260 4,400 2,667 Climbing FlightAware ADS-B
Mon 09:49:22 AM 51.2680 0.6130 328° Northwest 224 258 4,200 -3,800 Descending FlightAware ADS-B
Mon 09:49:37 AM 51.2871 0.6133 328° Northwest 226 260 2,500 -240 Descending FlightAware UK
Mon 09:49:47 AM 51.2900 0.5930 328° Northwest 207 238 4,100 3,600 Climbing FlightAware ADS-B
Mon 09:50:02 AM 51.2980 0.5790 312° West 183 211 4,000  Descending FlightAware ADS-B
Mon 09:50:17 AM 51.3020 0.5590 288° West 171 197 4,100 -2,571 Climbing FlightAware ADS-B
Mon 09:50:37 AM 51.3055 0.5428 288° West 200 230 2,500  Descending FlightAware UK
Mon 09:50:42 AM 51.3030 0.5270 288° West 177 204 4,100 -250 Climbing FlightAware ADS-B
Mon 09:51:01 AM 51.3065 0.5112 288° West 202 232 2,400 -400 Descending FlightAware UK
Mon 09:51:12 AM 51.3040 0.4880 288° West 170 196 3,900 -600 Climbing FlightAware ADS-B
Mon 09:51:31 AM 51.3079 0.4732 288° West 196 226 2,100 -600 Descending FlightAware UK
Mon 09:51:42 AM 51.3050 0.4520 288° West 169 194 3,600 -400 Climbing FlightAware ADS-B
Mon 09:52:01 AM 51.3094 0.4358 288° West 196 226 1,900 -480 Descending FlightAware UK
Mon 09:52:07 AM 51.3060 0.4190 288° West 173 199 3,400 2,167 Climbing FlightAware ADS-B
Mon 09:52:37 AM 51.3070 0.3820 272° West 174 200 3,200 -327 Descending FlightAware ADS-B
Mon 09:53:02 AM 51.3080 0.3490 273° West 175 201 3,100 -150 Descending FlightAware ADS-B
Mon 09:53:17 AM 51.3090 0.3320 275° West 169 194 3,100  Level FlightAware ADS-B
Mon 09:53:32 AM 51.3160 0.3150 303° West 177 204 3,100  Level FlightAware ADS-B
Mon 09:53:47 AM 51.3280 0.3110 348° North 194 223 3,100  Level FlightAware ADS-B
Mon 09:53:57 AM 51.3380 0.3150 14° North 203 234 3,100  Level FlightAware ADS-B
Mon 09:54:12 AM 51.3510 0.3280 32° Northeast 211 243 3,100 -2,824 Level FlightAware ADS-B
Mon 09:54:31 AM 51.3749 0.3618 32° Northeast 192 221 1,500  Descending FlightAware UK
Mon 09:54:42 AM 51.3730 0.3530 32° Northeast 207 238 3,100 2,341 Climbing FlightAware ADS-B
Mon 09:55:12 AM 51.3990 0.3830 36° Northeast 205 236 3,100  Level FlightAware ADS-B
Mon 09:55:37 AM 51.4200 0.4030 31° Northeast 197 227 3,100  Level FlightAware ADS-B
Mon 09:55:42 AM 51.4240 0.4040 North 197 227 3,100  Level FlightAware ADS-B
Mon 09:56:07 AM 51.4430 0.3890 334° Northwest 173 199 3,100 -2,233 Level FlightAware ADS-B
Mon 09:56:25 AM 51.4620 0.3790 334° Northwest 196 226 1,500  Descending FlightAware UK
Mon 09:56:32 AM 51.4570 0.3640 334° Northwest 176 203 3,100  Climbing FlightAware ADS-B
Mon 09:56:49 AM 51.4757 0.3540 334° Northwest 198 228 1,500  Descending FlightAware UK
Mon 09:57:02 AM 51.4730 0.3360 334° Northwest 177 204 3,100  Climbing FlightAware ADS-B
Mon 09:57:19 AM 51.4914 0.3230 334° Northwest 196 226 1,500  Descending FlightAware UK
Mon 09:57:32 AM 51.4860 0.3010 334° Northwest 168 193 3,100 2,526 Climbing FlightAware ADS-B
Mon 09:57:57 AM 51.4880 0.2730 277° West 146 168 3,100 -2,043 Level FlightAware ADS-B
Mon 09:58:19 AM 51.4974 0.2558 277° West 164 189 1,500  Descending FlightAware UK
Mon 09:58:27 AM 51.4900 0.2420 277° West 137 158 3,100  Climbing FlightAware ADS-B
Mon 09:58:43 AM 51.4990 0.2329 277° West 148 170 1,500  Descending FlightAware UK
Mon 09:58:52 AM 51.4920 0.2180 277° West 113 130 3,100 4,000 Climbing FlightAware ADS-B
Mon 09:59:07 AM 51.4920 0.2060 270° West 110 127 3,100 -2,909 Level FlightAware ADS-B
Mon 09:59:25 AM 51.5005 0.1988 270° West 126 145 1,500 -200 Descending FlightAware UK
Mon 09:59:37 AM 51.4920 0.1830 270° West 97 112 3,000 2,250 Climbing FlightAware ADS-B
Mon 09:59:57 AM 51.4930 0.1670 276° West 103 119 2,700 -3,125 Descending FlightAware ADS-B
Mon 10:00:25 AM 51.5018 0.1545 276° West 128 147 500 -1,200 Descending FlightAware UK
Mon 10:00:27 AM 51.4930 0.1450 276° West 99 114 2,100 3,545 Climbing FlightAware ADS-B
Mon 10:00:47 AM 51.4930 0.1310 270° West 95 109 1,800 -960 Descending FlightAware ADS-B
Mon 10:01:17 AM 51.4940 0.1100 274° West 102 117 1,300 -982 Descending FlightAware ADS-B
Mon 10:01:42 AM 51.4940 0.0900 270° West 98 113 900 -933 Descending FlightAware ADS-B
Mon 10:02:02 AM 51.4950 0.0750 276° West 107 123 600 -933 Descending FlightAware ADS-B
Mon 10:02:27 AM 51.4950 0.0570 270° West 107 123 200 -960 Descending FlightAware ADS-B

Login

Don't have an account? Register now (free) for customized features, flight alerts, and more!